Time;durP1;ratioP1;P1;durP2;ratioP2;P2;SDS_P1;SDS_P2;PMS_P1;PMS_P2;Temp;Humidity;BMP_temperature;BMP_pressure;BME280_temperature;BME280_humidity;BME280_pressure;Samples;Min_cycle;Max_cycle;Signal;HPM_P1;HPM_P2
2022/08/24 00:02:10;;;;;;;24.57;10.37;;;19.00;99.90;;;;;;5084456;28;20252;-81
2022/08/24 00:04:36;;;;;;;12.87;9.30;;;19.00;99.90;;;;;;5037606;28;20239;-81
2022/08/24 00:07:02;;;;;;;13.43;9.40;;;19.00;99.90;;;;;;5020618;28;20223;-81
2022/08/24 00:09:29;;;;;;;13.97;8.83;;;19.00;99.90;;;;;;5025559;28;20238;-81
2022/08/24 00:11:55;;;;;;;17.20;10.30;;;19.00;99.90;;;;;;5017590;28;20215;-81
2022/08/24 00:14:21;;;;;;;16.07;9.83;;;19.00;99.90;;;;;;5022262;28;20218;-80
2022/08/24 00:16:46;;;;;;;17.40;9.83;;;19.00;99.90;;;;;;5024930;28;20228;-81
2022/08/24 00:19:12;;;;;;;15.23;10.80;;;18.90;99.90;;;;;;5012988;28;20696;-80
2022/08/24 00:21:38;;;;;;;17.63;11.37;;;19.00;99.90;;;;;;5014017;28;20235;-81
2022/08/24 00:24:04;;;;;;;16.50;10.13;;;18.90;99.90;;;;;;5019921;28;20653;-81
2022/08/24 00:26:30;;;;;;;18.37;11.87;;;18.90;99.90;;;;;;5017174;28;20581;-83
2022/08/24 00:28:57;;;;;;;17.33;10.67;;;18.90;99.90;;;;;;5020441;28;20194;-81
2022/08/24 00:31:23;;;;;;;17.07;11.00;;;19.00;99.90;;;;;;5005053;28;20733;-81
2022/08/24 00:33:49;;;;;;;17.70;10.93;;;19.00;99.90;;;;;;5018469;28;20233;-81
2022/08/24 00:36:15;;;;;;;15.57;10.13;;;19.00;99.90;;;;;;5020836;28;20223;-81
2022/08/24 00:38:41;;;;;;;20.23;11.03;;;18.90;99.90;;;;;;5020258;28;20293;-81
2022/08/24 00:41:07;;;;;;;14.27;10.30;;;18.90;99.90;;;;;;5021999;28;20550;-81
2022/08/24 00:43:33;;;;;;;18.20;10.77;;;18.90;99.90;;;;;;5021388;28;20223;-81
2022/08/24 00:46:27;;;;;;;16.87;10.67;;;18.90;99.90;;;;;;5016455;28;20223;-80
2022/08/24 00:49:08;;;;;;;15.70;10.63;;;18.90;99.90;;;;;;5014598;28;20252;-80
2022/08/24 00:51:48;;;;;;;16.27;9.90;;;18.90;99.90;;;;;;5021332;28;20343;-81
2022/08/24 00:54:16;;;;;;;13.90;8.50;;;18.90;99.90;;;;;;5013771;28;20768;-81
2022/08/24 00:56:45;;;;;;;12.60;8.53;;;18.70;99.90;;;;;;5020414;28;20233;-80
2022/08/24 00:59:17;;;;;;;10.07;8.07;;;18.30;99.90;;;;;;5020047;28;20184;-82
2022/08/24 01:01:43;;;;;;;12.27;8.33;;;18.00;99.90;;;;;;5019342;28;20239;-80
2022/08/24 01:04:20;;;;;;;13.50;8.97;;;17.90;99.90;;;;;;5065937;28;20657;-79
2022/08/24 01:06:47;;;;;;;16.20;9.20;;;17.90;99.90;;;;;;5104387;28;20231;-80
2022/08/24 01:09:13;;;;;;;12.33;9.50;;;18.00;99.90;;;;;;5103838;28;20262;-80
2022/08/24 01:11:39;;;;;;;17.83;10.57;;;18.10;99.90;;;;;;5082889;28;20663;-81
2022/08/24 01:14:06;;;;;;;13.10;9.00;;;18.00;99.90;;;;;;5063451;28;20219;-81
2022/08/24 01:19:42;;;;;;;17.37;10.33;;;17.90;99.90;;;;;;5088459;28;20212;-81
2022/08/24 01:22:29;;;;;;;13.93;8.90;;;17.70;99.90;;;;;;5101078;28;20259;-81
2022/08/24 01:24:55;;;;;;;13.60;9.13;;;17.40;99.90;;;;;;5086731;28;20776;-82
2022/08/24 01:27:22;;;;;;;16.27;9.57;;;17.30;99.90;;;;;;5071698;28;20688;-83
2022/08/24 01:29:48;;;;;;;14.33;8.67;;;17.30;99.90;;;;;;5100542;28;20732;-83
2022/08/24 01:32:15;;;;;;;16.03;9.53;;;17.30;99.90;;;;;;5100601;28;20184;-83
2022/08/24 01:34:41;;;;;;;15.43;9.80;;;17.30;99.90;;;;;;5084802;28;20223;-82
2022/08/24 01:37:09;;;;;;;15.70;10.30;;;17.40;99.90;;;;;;5083064;28;20228;-84
2022/08/24 01:39:42;;;;;;;14.23;9.67;;;17.40;99.90;;;;;;5100134;28;20582;-83
2022/08/24 01:42:08;;;;;;;15.73;8.80;;;17.40;99.90;;;;;;5095758;28;20215;-83
2022/08/24 01:44:37;;;;;;;17.90;10.17;;;17.40;99.90;;;;;;5099967;28;20208;-83
2022/08/24 01:47:05;;;;;;;12.00;8.10;;;17.40;99.90;;;;;;5094399;28;20276;-83
2022/08/24 01:49:33;;;;;;;18.93;10.00;;;17.50;99.90;;;;;;5103433;28;20220;-83
2022/08/24 01:51:59;;;;;;;19.00;11.17;;;17.70;99.90;;;;;;5097646;28;20619;-83
2022/08/24 01:54:27;;;;;;;21.10;11.67;;;18.00;99.90;;;;;;5099313;28;20235;-83
2022/08/24 01:56:53;;;;;;;22.47;12.00;;;18.10;99.90;;;;;;5099618;28;20316;-83
2022/08/24 01:59:19;;;;;;;20.07;11.50;;;18.10;99.90;;;;;;5068452;28;20705;-84
2022/08/24 02:01:52;;;;;;;20.40;11.47;;;18.20;99.90;;;;;;5065490;28;20272;-84
2022/08/24 02:04:18;;;;;;;22.30;11.37;;;18.30;99.90;;;;;;5103233;28;20289;-83
2022/08/24 02:06:44;;;;;;;18.37;11.00;;;18.30;99.90;;;;;;5055851;28;20215;-83
2022/08/24 02:09:10;;;;;;;15.00;8.77;;;18.30;99.90;;;;;;5103168;28;20550;-82
2022/08/24 02:11:38;;;;;;;12.43;8.83;;;18.00;99.90;;;;;;5089443;28;20192;-82
2022/08/24 02:14:04;;;;;;;13.87;9.20;;;17.70;99.90;;;;;;5099049;28;20208;-82
2022/08/24 02:16:30;;;;;;;10.90;7.53;;;17.50;99.90;;;;;;5103060;28;20216;-83
2022/08/24 02:18:56;;;;;;;12.23;8.80;;;17.20;99.90;;;;;;5080783;28;20219;-83
2022/08/24 02:21:23;;;;;;;13.23;8.53;;;17.10;99.90;;;;;;5085032;28;20219;-83
2022/08/24 02:23:49;;;;;;;11.80;8.70;;;17.10;99.90;;;;;;5102969;28;20297;-82
2022/08/24 02:26:16;;;;;;;12.17;8.10;;;17.10;99.90;;;;;;5099097;28;20191;-83
2022/08/24 02:28:42;;;;;;;17.47;9.40;;;17.20;99.90;;;;;;5100096;28;20246;-82
2022/08/24 02:31:12;;;;;;;15.70;8.20;;;17.20;99.90;;;;;;5099406;28;20220;-82
2022/08/24 02:33:38;;;;;;;13.87;9.60;;;17.40;99.90;;;;;;5084102;28;20211;-83
2022/08/24 02:36:05;;;;;;;19.50;9.93;;;17.50;99.90;;;;;;5081433;28;20243;-83
2022/08/24 02:38:31;;;;;;;14.97;9.90;;;17.70;99.90;;;;;;5085877;28;20188;-82
2022/08/24 02:40:58;;;;;;;12.43;8.50;;;17.80;99.90;;;;;;5068569;28;20194;-82
2022/08/24 02:43:24;;;;;;;13.30;9.03;;;17.90;99.90;;;;;;5088339;28;20331;-82
2022/08/24 02:45:51;;;;;;;12.50;8.53;;;17.90;99.90;;;;;;5098265;28;20216;-80
2022/08/24 02:48:16;;;;;;;14.40;8.50;;;18.00;99.90;;;;;;5096160;28;20704;-82
2022/08/24 02:50:46;;;;;;;14.17;8.83;;;18.00;99.90;;;;;;5097398;28;20216;-82
2022/08/24 02:53:14;;;;;;;15.07;10.33;;;18.00;99.90;;;;;;5103073;28;20177;-83
2022/08/24 02:55:41;;;;;;;13.50;9.33;;;18.00;99.90;;;;;;5082098;28;20228;-82
2022/08/24 02:58:09;;;;;;;13.60;9.33;;;18.00;99.90;;;;;;5105849;28;20220;-83
2022/08/24 03:00:37;;;;;;;12.03;8.87;;;18.00;99.90;;;;;;5100006;28;20212;-83
2022/08/24 03:03:04;;;;;;;20.30;10.27;;;18.00;99.90;;;;;;5083268;28;20682;-83
2022/08/24 03:05:30;;;;;;;14.10;9.43;;;18.00;99.90;;;;;;5099418;28;20184;-82
2022/08/24 03:07:56;;;;;;;15.73;10.57;;;18.00;99.90;;;;;;5080578;28;20223;-82
2022/08/24 03:10:22;;;;;;;15.97;10.50;;;18.10;99.90;;;;;;5080370;28;20698;-82
2022/08/24 03:12:49;;;;;;;16.43;10.63;;;18.10;99.90;;;;;;5100264;28;20586;-83
2022/08/24 03:15:15;;;;;;;13.07;9.80;;;18.10;99.90;;;;;;5098729;28;20237;-82
2022/08/24 03:17:42;;;;;;;13.87;9.90;;;18.10;99.90;;;;;;5091505;28;20227;-82
2022/08/24 03:20:13;;;;;;;18.63;11.27;;;18.20;99.90;;;;;;5084865;28;20180;-82
2022/08/24 03:22:40;;;;;;;15.77;8.97;;;18.30;99.90;;;;;;5101599;28;20583;-82
2022/08/24 03:25:07;;;;;;;14.13;8.47;;;18.30;99.90;;;;;;5102164;28;20223;-82
2022/08/24 03:27:33;;;;;;;12.50;7.53;;;18.20;99.90;;;;;;5088470;28;20226;-83
2022/08/24 03:30:00;;;;;;;11.67;8.73;;;18.10;99.90;;;;;;5102433;28;20306;-82
2022/08/24 03:32:26;;;;;;;10.17;7.27;;;18.00;99.90;;;;;;5102095;28;20184;-82
2022/08/24 03:34:53;;;;;;;12.27;7.50;;;17.80;99.90;;;;;;5081916;28;20304;-83
2022/08/24 03:37:19;;;;;;;12.33;7.77;;;17.80;99.90;;;;;;5104147;28;20223;-82
2022/08/24 03:39:46;;;;;;;12.33;7.93;;;17.80;99.90;;;;;;5081888;28;20220;-82
2022/08/24 03:42:13;;;;;;;12.77;7.97;;;17.80;99.90;;;;;;5101467;28;20308;-82
2022/08/24 03:44:40;;;;;;;11.23;6.90;;;17.90;99.90;;;;;;5087191;28;20220;-82
2022/08/24 03:47:08;;;;;;;11.77;8.13;;;17.80;99.90;;;;;;5086719;28;20634;-83
2022/08/24 03:49:35;;;;;;;11.27;7.67;;;17.80;99.90;;;;;;5089185;28;20694;-83
2022/08/24 03:52:00;;;;;;;11.37;8.07;;;17.80;99.90;;;;;;5085662;28;20304;-82
2022/08/24 03:54:26;;;;;;;12.47;8.17;;;17.80;99.90;;;;;;5087697;28;20319;-82
2022/08/24 03:56:52;;;;;;;10.87;7.13;;;17.80;99.90;;;;;;5086118;28;20234;-82
2022/08/24 03:59:18;;;;;;;11.57;8.13;;;17.80;99.90;;;;;;5088017;28;20180;-83
2022/08/24 04:01:43;;;;;;;16.87;9.43;;;17.80;99.90;;;;;;5087633;28;20176;-82
2022/08/24 04:04:09;;;;;;;14.13;9.00;;;17.90;99.90;;;;;;5102231;28;20251;-82
2022/08/24 04:06:35;;;;;;;14.27;9.23;;;17.90;99.90;;;;;;5090323;28;20753;-82
2022/08/24 04:09:02;;;;;;;19.07;10.07;;;18.00;99.90;;;;;;5101808;28;20248;-82
2022/08/24 04:11:28;;;;;;;21.10;10.67;;;18.10;99.90;;;;;;5104873;28;20251;-82
2022/08/24 04:13:57;;;;;;;20.67;11.37;;;18.20;99.90;;;;;;5067273;28;20189;-84
2022/08/24 04:16:24;;;;;;;20.93;11.73;;;18.30;99.90;;;;;;5103752;28;20413;-82
2022/08/24 04:18:50;;;;;;;18.67;12.07;;;18.30;99.90;;;;;;5066935;28;20663;-82
2022/08/24 04:21:22;;;;;;;21.97;12.37;;;18.40;99.90;;;;;;5104955;28;20310;-83
2022/08/24 04:23:48;;;;;;;19.40;11.67;;;18.40;99.90;;;;;;5102121;28;20216;-82
2022/08/24 04:26:15;;;;;;;22.83;11.50;;;18.50;99.90;;;;;;5104974;28;20184;-84
2022/08/24 04:28:41;;;;;;;17.07;12.33;;;18.40;99.90;;;;;;5101489;28;20220;-82
2022/08/24 04:31:07;;;;;;;19.30;11.43;;;18.40;99.90;;;;;;5080196;28;20578;-82
2022/08/24 04:33:33;;;;;;;18.80;12.10;;;18.30;99.90;;;;;;5101321;28;20301;-84
2022/08/24 04:35:59;;;;;;;17.27;10.97;;;18.30;99.90;;;;;;5104885;28;20239;-82
2022/08/24 04:38:25;;;;;;;21.67;12.90;;;18.40;99.90;;;;;;5104796;28;20192;-82
2022/08/24 04:40:51;;;;;;;21.33;10.77;;;18.40;99.90;;;;;;5089442;28;20181;-83
2022/08/24 04:43:17;;;;;;;18.97;12.03;;;18.40;99.90;;;;;;5082708;28;20250;-82
2022/08/24 04:45:47;;;;;;;20.67;12.40;;;18.40;99.90;;;;;;5086358;28;20225;-82
2022/08/24 04:48:14;;;;;;;20.53;12.67;;;18.40;99.90;;;;;;5104432;28;20223;-83
2022/08/24 04:50:42;;;;;;;20.30;11.40;;;18.40;99.90;;;;;;5086144;28;20294;-82
2022/08/24 04:53:09;;;;;;;21.07;11.87;;;18.40;99.90;;;;;;5101504;28;20188;-83
2022/08/24 04:55:42;;;;;;;22.47;12.27;;;18.40;99.90;;;;;;5086550;28;20314;-82
2022/08/24 04:58:09;;;;;;;17.53;11.17;;;18.50;99.90;;;;;;5105614;28;20216;-82
2022/08/24 05:00:34;;;;;;;20.10;12.03;;;18.50;99.90;;;;;;5086416;28;20223;-83
2022/08/24 05:03:00;;;;;;;20.57;12.40;;;18.50;99.90;;;;;;5103649;28;20277;-83
2022/08/24 05:05:26;;;;;;;17.20;10.50;;;18.50;99.90;;;;;;5088140;28;20210;-82
2022/08/24 05:07:51;;;;;;;23.50;11.97;;;18.50;99.90;;;;;;5086517;28;20188;-85
2022/08/24 05:10:17;;;;;;;16.33;12.20;;;18.50;99.90;;;;;;5066161;28;20641;-82
2022/08/24 05:12:43;;;;;;;17.93;10.93;;;18.50;99.90;;;;;;5052690;28;20209;-82
2022/08/24 05:15:11;;;;;;;16.60;10.80;;;18.40;99.90;;;;;;5082068;28;20248;-82
2022/08/24 05:17:39;;;;;;;14.67;10.90;;;18.40;99.90;;;;;;5100242;28;20224;-82
2022/08/24 05:20:08;;;;;;;19.30;11.90;;;18.40;99.90;;;;;;5085932;28;20191;-83
2022/08/24 05:22:34;;;;;;;18.57;11.57;;;18.50;99.90;;;;;;5100285;28;20265;-82
2022/08/24 05:25:00;;;;;;;21.43;12.03;;;18.60;99.90;;;;;;5086174;28;20221;-82
2022/08/24 05:27:26;;;;;;;21.03;12.37;;;18.80;99.90;;;;;;5084252;28;20219;-82
2022/08/24 05:29:53;;;;;;;22.07;13.03;;;18.80;99.90;;;;;;5101391;28;20218;-82
2022/08/24 05:32:18;;;;;;;22.03;13.07;;;18.80;99.90;;;;;;5081862;28;20196;-82
2022/08/24 05:34:44;;;;;;;23.27;13.47;;;18.90;99.90;;;;;;5076658;28;20208;-82
2022/08/24 05:37:10;;;;;;;22.87;13.67;;;19.00;99.90;;;;;;5081768;28;20251;-84
2022/08/24 05:39:36;;;;;;;25.47;13.70;;;19.10;99.90;;;;;;5097241;28;20230;-80
2022/08/24 05:42:02;;;;;;;21.87;13.10;;;19.20;99.90;;;;;;5084338;28;20228;-82
2022/08/24 05:44:30;;;;;;;26.90;14.90;;;19.30;99.90;;;;;;5052416;28;20623;-83
2022/08/24 05:46:57;;;;;;;29.80;14.10;;;19.50;99.90;;;;;;5083788;28;20218;-82
2022/08/24 05:49:24;;;;;;;20.93;13.40;;;20.00;99.90;;;;;;5101285;28;20251;-82
2022/08/24 05:51:50;;;;;;;27.73;15.87;;;20.80;99.90;;;;;;5103629;28;20671;-82
2022/08/24 05:54:17;;;;;;;26.27;14.70;;;22.10;99.90;;;;;;5079552;28;20219;-83
2022/08/24 05:56:44;;;;;;;27.00;11.97;;;23.70;99.90;;;;;;5099414;28;20231;-80
2022/08/24 05:59:10;;;;;;;16.77;11.70;;;25.30;99.90;;;;;;5105294;28;20180;-80
2022/08/24 06:01:37;;;;;;;16.40;11.30;;;26.00;99.90;;;;;;5111212;28;20339;-80
2022/08/24 06:04:04;;;;;;;15.37;10.43;;;26.50;99.90;;;;;;5057767;28;20231;-80
2022/08/24 06:06:30;;;;;;;14.65;10.80;;;26.60;99.90;;;;;;5018949;28;20271;-80
2022/08/24 06:08:57;;;;;;;15.07;10.90;;;27.00;99.90;;;;;;5020674;28;20684;-84
2022/08/24 06:11:29;;;;;;;16.05;10.68;;;28.00;99.90;;;;;;5016314;28;20219;-80
2022/08/24 06:13:59;;;;;;;12.32;10.05;;;29.00;99.90;;;;;;5018004;28;20218;-80
2022/08/24 06:16:25;;;;;;;14.88;10.05;;;29.40;99.90;;;;;;5018691;28;20230;-79
2022/08/24 06:18:52;;;;;;;16.80;10.75;;;29.70;99.90;;;;;;5017233;28;20222;-79
2022/08/24 06:21:22;;;;;;;15.40;10.68;;;30.20;99.90;;;;;;5017939;28;20287;-81
2022/08/24 06:23:49;;;;;;;11.63;10.10;;;31.00;99.90;;;;;;5016135;28;20739;-79
2022/08/24 06:29:01;;;;;;;15.60;10.25;;;31.20;99.90;;;;;;5017003;28;20320;-79
2022/08/24 06:31:27;;;;;;;13.98;10.63;;;32.00;99.90;;;;;;5022590;28;20219;-81
2022/08/24 06:33:53;;;;;;;12.88;9.93;;;32.70;99.90;;;;;;5019509;28;20290;-81
2022/08/24 06:36:19;;;;;;;15.55;10.40;;;32.40;99.90;;;;;;5017203;28;20219;-79
2022/08/24 06:38:45;;;;;;;14.43;10.00;;;31.50;99.90;;;;;;5041698;28;20661;-80
2022/08/24 06:41:10;;;;;;;13.95;10.60;;;30.70;99.90;;;;;;5037776;28;20551;-80
2022/08/24 06:43:36;;;;;;;16.85;10.07;;;29.20;99.90;;;;;;5026285;28;20226;-79
2022/08/24 06:46:03;;;;;;;13.02;10.30;;;27.90;99.90;;;;;;5023563;28;20626;-81
2022/08/24 06:48:29;;;;;;;16.40;11.43;;;26.70;99.90;;;;;;5015067;28;20226;-80
2022/08/24 06:50:56;;;;;;;17.95;11.20;;;26.30;99.90;;;;;;5018759;28;20740;-80
2022/08/24 06:53:22;;;;;;;14.70;10.75;;;26.40;99.90;;;;;;5018547;28;20194;-79
2022/08/24 06:55:54;;;;;;;16.50;10.13;;;27.40;99.90;;;;;;5019095;28;20609;-80
2022/08/24 06:58:20;;;;;;;12.57;10.25;;;28.60;99.90;;;;;;5031117;28;20211;-79
2022/08/24 07:00:47;;;;;;;17.42;10.82;;;29.30;99.90;;;;;;5023860;28;20214;-79
2022/08/24 07:03:13;;;;;;;19.27;10.90;;;30.60;99.90;;;;;;5030515;28;20240;-79
2022/08/24 07:05:39;;;;;;;15.07;10.30;;;30.80;99.90;;;;;;5107446;28;20216;-80
2022/08/24 07:08:06;;;;;;;14.00;10.05;;;30.90;99.90;;;;;;5071743;28;20332;-79
2022/08/24 07:10:33;;;;;;;15.23;10.25;;;31.50;99.90;;;;;;5085315;28;20212;-79
2022/08/24 07:12:59;;;;;;;16.38;10.27;;;31.40;99.90;;;;;;5105825;28;20556;-79
2022/08/24 07:15:25;;;;;;;12.85;9.23;;;31.30;99.90;;;;;;5085060;28;20648;-80
2022/08/24 07:17:52;;;;;;;13.75;9.13;;;30.90;99.90;;;;;;5070286;28;20208;-79
2022/08/24 07:20:18;;;;;;;13.63;9.52;;;30.00;99.90;;;;;;5074306;28;20287;-79
2022/08/24 07:22:44;;;;;;;12.82;9.48;;;31.80;99.90;;;;;;5105558;28;20276;-80
2022/08/24 07:25:11;;;;;;;12.18;8.43;;;33.50;99.90;;;;;;5085484;28;20292;-80
2022/08/24 07:27:38;;;;;;;15.00;8.65;;;34.70;99.90;;;;;;5105207;28;20265;-80
2022/08/24 07:30:06;;;;;;;10.60;7.43;;;35.90;99.90;;;;;;5100577;28;20231;-80
2022/08/24 07:32:32;;;;;;;9.23;7.60;;;36.50;99.90;;;;;;5104740;28;20184;-81
2022/08/24 07:34:59;;;;;;;11.93;8.00;;;36.70;99.90;;;;;;5091528;28;20223;-80
2022/08/24 07:37:25;;;;;;;12.25;7.95;;;37.20;99.90;;;;;;5085770;28;20738;-80
2022/08/24 07:39:51;;;;;;;10.43;7.38;;;36.20;99.90;;;;;;5104257;28;20213;-80
2022/08/24 07:42:17;;;;;;;13.95;7.20;;;36.10;99.90;;;;;;5104094;28;20226;-81
2022/08/24 07:44:43;;;;;;;12.45;8.00;;;35.30;99.90;;;;;;5088341;28;20882;-80
2022/08/24 07:47:08;;;;;;;11.45;8.10;;;34.20;99.90;;;;;;5103615;28;20180;-80
2022/08/24 07:49:34;;;;;;;14.10;7.65;;;33.60;99.90;;;;;;5091072;28;20687;-80
2022/08/24 07:52:00;;;;;;;10.02;7.80;;;33.30;99.90;;;;;;5070021;28;20716;-81
2022/08/24 07:54:28;;;;;;;9.85;6.43;;;33.00;99.90;;;;;;5084275;28;20265;-81
2022/08/24 07:56:55;;;;;;;9.32;6.90;;;33.50;99.90;;;;;;5087200;28;20203;-80
2022/08/24 07:59:21;;;;;;;9.05;6.07;;;34.00;99.90;;;;;;5105894;28;20301;-80
2022/08/24 08:01:48;;;;;;;9.98;7.05;;;33.20;99.90;;;;;;5070696;28;20659;-81
2022/08/24 08:04:15;;;;;;;9.38;6.30;;;33.70;99.90;;;;;;5046923;28;20234;-81
2022/08/24 08:06:41;;;;;;;9.55;6.80;;;34.10;99.90;;;;;;5024488;28;20226;-81
2022/08/24 08:09:07;;;;;;;10.20;7.47;;;33.50;99.90;;;;;;5020571;28;20229;-81
2022/08/24 08:11:33;;;;;;;11.18;6.68;;;33.20;99.90;;;;;;5015947;28;20546;-80
2022/08/24 08:13:59;;;;;;;12.02;8.13;;;34.30;99.90;;;;;;5018569;28;20195;-81
2022/08/24 08:16:25;;;;;;;8.30;7.47;;;33.50;99.90;;;;;;5018487;28;20219;-81
2022/08/24 08:18:51;;;;;;;9.85;7.88;;;33.60;99.90;;;;;;5016861;28;20226;-80
2022/08/24 08:24:19;;;;;;;10.05;8.05;;;33.60;99.90;;;;;;5027080;28;20227;-81
2022/08/24 08:26:50;;;;;;;11.48;9.20;;;34.10;99.90;;;;;;5020668;28;20590;-81
2022/08/24 08:29:18;;;;;;;10.25;7.78;;;35.00;99.90;;;;;;5018474;28;20614;-82
2022/08/24 08:31:44;;;;;;;9.98;8.07;;;36.40;99.90;;;;;;5018783;28;20242;-82
2022/08/24 08:34:11;;;;;;;8.45;6.85;;;37.10;99.90;;;;;;5019952;28;20688;-81
2022/08/24 08:36:39;;;;;;;7.30;6.60;;;36.70;99.90;;;;;;5017093;28;20227;-81
2022/08/24 08:39:07;;;;;;;7.13;6.43;;;35.40;99.90;;;;;;5021515;28;20221;-81
2022/08/24 08:42:13;;;;;;;8.38;7.00;;;34.60;99.90;;;;;;5018475;28;20219;-82
2022/08/24 08:44:58;;;;;;;8.10;6.72;;;33.70;99.90;;;;;;5017638;28;20225;-80
2022/08/24 08:47:45;;;;;;;8.15;6.78;;;33.40;99.90;;;;;;5017628;28;20191;-81
2022/08/24 08:50:32;;;;;;;7.82;6.35;;;34.30;99.90;;;;;;5017762;28;20187;-81
2022/08/24 08:53:13;;;;;;;7.93;5.97;;;34.40;99.90;;;;;;5024862;28;20214;-81
2022/08/24 08:55:40;;;;;;;7.72;5.60;;;34.40;99.90;;;;;;5020963;28;20223;-81
2022/08/24 08:58:21;;;;;;;8.73;5.85;;;34.80;99.90;;;;;;5024512;28;20214;-80
2022/08/24 09:01:03;;;;;;;6.20;5.60;;;32.90;99.90;;;;;;5018818;28;20309;-80
2022/08/24 09:03:39;;;;;;;7.70;6.90;;;33.40;99.90;;;;;;5038883;28;20236;-80
2022/08/24 09:06:21;;;;;;;8.00;6.10;;;33.50;99.90;;;;;;5101897;28;20741;-80
2022/08/24 09:09:09;;;;;;;7.22;5.22;;;33.50;99.90;;;;;;5101674;28;20207;-80
2022/08/24 09:12:07;;;;;;;7.15;5.60;;;34.90;99.90;;;;;;5100055;28;20305;-80
2022/08/24 09:14:46;;;;;;;6.32;4.53;;;35.20;99.90;;;;;;5098262;28;20265;-81
2022/08/24 09:17:45;;;;;;;6.50;5.05;;;36.20;99.90;;;;;;5083244;28;20184;-80
2022/08/24 09:20:45;;;;;;;7.10;6.20;;;37.40;99.90;;;;;;5103380;28;20217;-83
2022/08/24 09:23:28;;;;;;;6.05;5.22;;;37.00;99.90;;;;;;5103390;28;20663;-83
2022/08/24 09:26:19;;;;;;;8.32;5.97;;;36.40;99.90;;;;;;5103793;28;20208;-81
2022/08/24 09:28:57;;;;;;;8.77;5.85;;;37.10;99.90;;;;;;5101564;28;20255;-81
2022/08/24 09:31:39;;;;;;;6.47;5.35;;;36.20;99.90;;;;;;5101146;28;20223;-81
2022/08/24 09:34:22;;;;;;;6.28;5.00;;;34.10;99.90;;;;;;5100252;28;20221;-82
2022/08/24 09:36:53;;;;;;;5.45;4.78;;;33.50;99.90;;;;;;5100934;28;20586;-80
2022/08/24 09:39:45;;;;;;;7.63;4.90;;;32.60;99.90;;;;;;5100282;28;20670;-80
2022/08/24 09:42:44;;;;;;;6.80;5.20;;;33.90;99.90;;;;;;5066755;28;20809;-80
2022/08/24 09:45:39;;;;;;;7.47;4.72;;;33.90;99.90;;;;;;5088627;28;20225;-81
2022/08/24 09:48:32;;;;;;;6.97;4.50;;;35.60;99.90;;;;;;5106033;28;20220;-80
2022/08/24 09:51:22;;;;;;;4.38;3.33;;;35.10;99.90;;;;;;5090648;28;20212;-80
2022/08/24 09:54:03;;;;;;;4.63;2.92;;;34.30;99.90;;;;;;5099551;28;20625;-81
2022/08/24 09:57:00;;;;;;;4.07;3.13;;;34.90;99.90;;;;;;5105713;28;20180;-80
2022/08/24 09:59:55;;;;;;;8.10;3.70;;;33.60;99.90;;;;;;5109397;28;20424;-79
2022/08/24 10:02:51;;;;;;;4.22;3.67;;;34.90;99.90;;;;;;5107256;28;20646;-80
2022/08/24 10:05:47;;;;;;;4.38;3.20;;;34.10;99.90;;;;;;5035819;28;20218;-80
2022/08/24 10:08:31;;;;;;;4.15;2.60;;;35.50;99.90;;;;;;5026950;28;20218;-81
2022/08/24 10:11:20;;;;;;;2.67;2.03;;;36.10;99.90;;;;;;5028196;28;20554;-80
2022/08/24 10:14:08;;;;;;;5.95;2.47;;;36.30;99.90;;;;;;5024697;28;20304;-80
2022/08/24 10:16:52;;;;;;;3.45;1.77;;;36.20;99.90;;;;;;5026976;28;20219;-80
2022/08/24 10:19:41;;;;;;;5.65;2.00;;;34.70;99.90;;;;;;5027265;28;20206;-81
2022/08/24 10:22:19;;;;;;;2.50;2.25;;;34.10;99.90;;;;;;5021396;28;20241;-80
2022/08/24 10:24:47;;;;;;;4.80;3.10;;;34.60;99.90;;;;;;5022400;28;20577;-79
2022/08/24 10:27:37;;;;;;;3.47;3.00;;;33.70;99.90;;;;;;5022266;28;20214;-82
2022/08/24 10:30:31;;;;;;;4.45;3.05;;;32.60;99.90;;;;;;5020327;28;20670;-80
2022/08/24 10:33:27;;;;;;;5.65;3.25;;;31.70;99.90;;;;;;5016172;28;20626;-83
2022/08/24 10:35:59;;;;;;;6.43;2.88;;;32.80;99.90;;;;;;5019079;28;20251;-84
2022/08/24 10:41:45;;;;;;;2.42;2.22;;;33.70;99.90;;;;;;5020570;28;20184;-80
2022/08/24 10:44:25;;;;;;;3.67;2.85;;;33.60;99.90;;;;;;5019799;28;20191;-82
2022/08/24 10:47:29;;;;;;;2.75;2.47;;;32.50;99.90;;;;;;5043687;28;20628;-82
2022/08/24 10:50:07;;;;;;;3.05;2.28;;;32.40;99.90;;;;;;5024762;28;20218;-81
2022/08/24 10:52:48;;;;;;;3.97;2.20;;;32.20;99.90;;;;;;5017704;28;20213;-80
2022/08/24 10:55:25;;;;;;;3.60;2.40;;;32.70;99.90;;;;;;5020014;28;20231;-80
2022/08/24 10:58:36;;;;;;;4.80;2.80;;;32.50;99.90;;;;;;5021629;28;20265;-80
2022/08/24 11:01:25;;;;;;;1.92;1.73;;;32.20;99.90;;;;;;5020195;28;20222;-80
2022/08/24 11:04:05;;;;;;;7.20;2.10;;;31.50;99.90;;;;;;5054308;28;20308;-80
2022/08/24 11:06:40;;;;;;;2.33;1.80;;;31.20;99.90;;;;;;5104982;28;20311;-81
2022/08/24 11:09:15;;;;;;;2.05;1.80;;;32.20;99.90;;;;;;5085624;28;20733;-81
2022/08/24 11:11:47;;;;;;;3.03;1.70;;;32.40;99.90;;;;;;5106554;28;20301;-80
2022/08/24 11:14:29;;;;;;;2.85;2.03;;;32.00;99.90;;;;;;5105666;28;20184;-81
2022/08/24 11:17:15;;;;;;;4.07;1.90;;;32.50;99.90;;;;;;5104556;28;20274;-80
2022/08/24 11:19:41;;;;;;;3.13;2.50;;;31.90;99.90;;;;;;5101325;28;20257;-82
2022/08/24 11:22:28;;;;;;;1.80;1.70;;;32.40;99.90;;;;;;5085042;28;20228;-81
2022/08/24 11:25:09;;;;;;;2.50;2.30;;;33.50;99.90;;;;;;5084794;28;20216;-81
2022/08/24 11:27:39;;;;;;;1.90;1.70;;;34.20;99.90;;;;;;5102567;28;20573;-81
2022/08/24 11:30:07;;;;;;;3.92;2.30;;;34.10;99.90;;;;;;5104168;28;20219;-81
2022/08/24 11:32:51;;;;;;;5.85;2.85;;;33.10;99.90;;;;;;5085725;28;20665;-81
2022/08/24 11:35:32;;;;;;;2.00;1.73;;;32.20;99.90;;;;;;5102046;28;20204;-81
2022/08/24 11:38:19;;;;;;;2.20;1.80;;;32.80;99.90;;;;;;5104583;28;20224;-80
2022/08/24 11:40:50;;;;;;;2.10;1.90;;;32.70;99.90;;;;;;5102857;28;20208;-83
2022/08/24 11:43:19;;;;;;;1.30;1.10;;;32.70;99.90;;;;;;5105120;28;20208;-81
2022/08/24 11:45:45;;;;;;;3.20;1.10;;;33.00;99.90;;;;;;5086488;28;20220;-80
2022/08/24 11:48:35;;;;;;;2.65;1.30;;;33.10;99.90;;;;;;5108903;28;20724;-81
2022/08/24 11:51:09;;;;;;;5.20;1.40;;;32.80;99.90;;;;;;5102109;28;20227;-82
2022/08/24 11:53:46;;;;;;;1.17;1.08;;;33.40;99.90;;;;;;5102723;28;20236;-80
2022/08/24 11:56:24;;;;;;;2.42;1.27;;;33.70;99.90;;;;;;5085707;28;20208;-81
2022/08/24 11:59:00;;;;;;;2.10;1.52;;;33.10;99.90;;;;;;5103810;28;20660;-81
2022/08/24 12:01:43;;;;;;;2.65;1.20;;;33.40;99.90;;;;;;5090313;28;20667;-78
2022/08/24 12:04:28;;;;;;;1.77;1.63;;;33.80;99.90;;;;;;5102417;28;20710;-81
2022/08/24 12:07:13;;;;;;;1.88;1.45;;;33.10;99.90;;;;;;5103119;28;20305;-81
2022/08/24 12:09:55;;;;;;;1.75;1.27;;;33.40;99.90;;;;;;5100789;28;20240;-81
2022/08/24 12:12:25;;;;;;;1.58;1.42;;;33.00;99.90;;;;;;5101443;28;20266;-81
2022/08/24 12:15:11;;;;;;;2.45;1.25;;;33.00;99.90;;;;;;5090287;28;20224;-81
2022/08/24 12:17:50;;;;;;;6.13;3.08;;;33.00;99.90;;;;;;5102266;28;20187;-80
2022/08/24 12:20:26;;;;;;;8.05;5.38;;;32.80;99.90;;;;;;5103514;28;20191;-83
2022/08/24 12:22:54;;;;;;;7.82;4.88;;;31.60;99.90;;;;;;5105326;28;20269;-82
2022/08/24 12:28:05;;;;;;;7.28;5.60;;;30.20;99.90;;;;;;5097463;28;20212;-83
2022/08/24 12:30:31;;;;;;;9.05;6.15;;;29.80;99.90;;;;;;5094368;28;20223;-80
2022/08/24 12:33:06;;;;;;;10.57;5.53;;;29.30;99.90;;;;;;5092969;28;20208;-80
2022/08/24 12:35:49;;;;;;;10.05;6.40;;;29.60;99.90;;;;;;5082330;28;20196;-82
2022/08/24 12:38:18;;;;;;;16.30;6.38;;;29.40;99.90;;;;;;5091719;28;20183;-80
2022/08/24 12:41:23;;;;;;;10.48;7.15;;;28.90;99.90;;;;;;5102186;28;20663;-81
2022/08/24 12:44:10;;;;;;;10.63;7.03;;;28.40;99.90;;;;;;5054968;28;20212;-81
2022/08/24 12:46:37;;;;;;;12.43;7.22;;;28.40;99.90;;;;;;5089699;28;20216;-81
2022/08/24 12:49:21;;;;;;;7.30;5.97;;;27.90;99.90;;;;;;5103850;28;20215;-81
2022/08/24 12:52:10;;;;;;;10.32;6.95;;;27.80;99.90;;;;;;5103936;28;20285;-81
2022/08/24 12:54:41;;;;;;;9.32;6.70;;;27.80;99.90;;;;;;5102648;28;20223;-82
2022/08/24 12:57:31;;;;;;;9.93;6.47;;;27.90;99.90;;;;;;5099545;28;20227;-81
2022/08/24 13:00:06;;;;;;;10.05;6.95;;;27.90;99.90;;;;;;5103365;28;20227;-80
2022/08/24 13:02:38;;;;;;;12.43;6.68;;;27.90;99.90;;;;;;5101311;28;20183;-81
2022/08/24 13:05:17;;;;;;;10.02;6.32;;;27.80;99.90;;;;;;5106036;28;20228;-81
2022/08/24 13:07:47;;;;;;;9.82;6.95;;;28.00;99.90;;;;;;5104490;28;20561;-80
2022/08/24 13:10:18;;;;;;;8.48;6.57;;;28.30;99.90;;;;;;5102845;28;20204;-80
2022/08/24 13:12:43;;;;;;;12.48;7.03;;;27.90;99.90;;;;;;5096364;28;20216;-81
2022/08/24 13:15:29;;;;;;;11.65;7.28;;;27.50;99.90;;;;;;5101962;28;20243;-81